createdAt,value
2023-03-03T00:02:42.752Z,49.18
2023-03-03T00:07:45.575Z,49.79
2023-03-03T00:12:49.647Z,50.30
2023-03-03T00:17:51.824Z,50.50
2023-03-03T00:22:53.400Z,51.17
2023-03-03T00:27:54.732Z,51.45
2023-03-03T00:32:56.218Z,52.12
2023-03-03T00:38:00.454Z,52.10
2023-03-03T00:43:12.205Z,53.58
2023-03-03T00:48:22.771Z,53.52
2023-03-03T00:53:30.014Z,54.56
2023-03-03T00:58:31.541Z,54.88
2023-03-03T01:03:32.980Z,55.19
2023-03-03T01:08:34.374Z,55.54
2023-03-03T01:13:38.183Z,55.58
2023-03-03T01:18:41.722Z,54.97
2023-03-03T01:23:43.625Z,55.71
2023-03-03T01:28:44.961Z,56.18
2023-03-03T01:33:46.641Z,56.31
2023-03-03T01:38:47.978Z,57.01
2023-03-03T01:43:50.421Z,56.85
2023-03-03T01:48:58.316Z,56.93
2023-03-03T01:54:03.293Z,58.05
2023-03-03T01:59:12.524Z,57.96
2023-03-03T02:04:15.223Z,58.15
2023-03-03T02:09:44.267Z,58.13
2023-03-03T02:14:45.968Z,58.49
2023-03-03T02:20:07.780Z,57.84
2023-03-03T02:25:14.970Z,57.71
2023-03-03T02:30:20.057Z,58.14
2023-03-03T02:35:33.693Z,58.18
2023-03-03T02:40:40.923Z,58.66
2023-03-03T02:45:44.299Z,58.96
2023-03-03T02:50:45.692Z,59.28
2023-03-03T02:55:47.230Z,59.02
2023-03-03T03:00:49.077Z,59.23
2023-03-03T03:05:50.730Z,59.28
2023-03-03T03:10:52.274Z,59.48
2023-03-03T03:15:54.183Z,59.80
2023-03-03T03:20:55.544Z,60.14
2023-03-03T03:25:56.861Z,60.29
2023-03-03T03:30:58.572Z,60.50
2023-03-03T03:36:00.128Z,59.65
2023-03-03T03:41:01.686Z,60.56
2023-03-03T03:46:03.374Z,61.50
2023-03-03T03:51:05.141Z,61.32
2023-03-03T03:56:07.325Z,61.79
2023-03-03T04:01:09.106Z,61.77
2023-03-03T04:06:10.507Z,61.48
2023-03-03T04:11:12.033Z,62.09
2023-03-03T04:16:13.521Z,61.66
2023-03-03T04:21:15.764Z,61.81
2023-03-03T04:26:17.228Z,62.21
2023-03-03T04:31:20.429Z,62.42
2023-03-03T04:36:22.171Z,62.68
2023-03-03T04:41:23.603Z,62.65
2023-03-03T04:46:25.324Z,63.09
2023-03-03T04:51:26.842Z,62.90
2023-03-03T04:56:31.384Z,63.05
2023-03-03T05:01:33.033Z,63.36
2023-03-03T05:06:34.657Z,63.31
2023-03-03T05:11:36.395Z,63.67
2023-03-03T05:16:37.914Z,64.09
2023-03-03T05:21:42.755Z,64.25
2023-03-03T05:26:44.550Z,64.74
2023-03-03T05:31:46.050Z,65.02
2023-03-03T05:36:47.852Z,65.19
2023-03-03T05:41:49.275Z,65.51
2023-03-03T05:46:50.659Z,65.62
2023-03-03T05:51:52.187Z,66.20
2023-03-03T05:56:53.657Z,65.85
2023-03-03T06:01:55.071Z,66.31
2023-03-03T06:06:56.491Z,66.03
2023-03-03T06:11:57.975Z,66.06
2023-03-03T06:16:59.438Z,66.04
2023-03-03T06:22:01.056Z,66.52
2023-03-03T06:27:02.539Z,66.53
2023-03-03T06:32:05.197Z,66.38
2023-03-03T06:37:06.956Z,65.83
2023-03-03T06:42:09.482Z,65.25
2023-03-03T06:47:10.973Z,65.84
2023-03-03T06:52:24.401Z,65.42
2023-03-03T06:57:31.953Z,65.79
2023-03-03T07:02:33.448Z,65.45
2023-03-03T07:07:35.224Z,66.11
2023-03-03T07:12:36.642Z,65.56
2023-03-03T07:17:50.924Z,66.01
2023-03-03T07:22:53.577Z,65.62
2023-03-03T07:28:00.770Z,64.96
2023-03-03T07:33:02.210Z,64.41
2023-03-03T07:38:12.184Z,64.80
2023-03-03T07:43:37.241Z,64.00
2023-03-03T07:48:42.008Z,64.61
2023-03-03T07:53:43.604Z,64.24
2023-03-03T07:58:45.083Z,64.04
2023-03-03T08:03:49.454Z,64.03
2023-03-03T08:08:51.490Z,63.71
2023-03-03T08:13:53.494Z,63.62
2023-03-03T08:18:59.093Z,63.63
2023-03-03T08:24:00.927Z,63.19
2023-03-03T08:29:02.571Z,62.82
2023-03-03T08:34:04.480Z,61.94
2023-03-03T08:39:07.119Z,62.55
2023-03-03T08:44:08.510Z,61.81
2023-03-03T08:49:10.185Z,61.37
2023-03-03T08:54:12.216Z,60.07
2023-03-03T08:59:13.726Z,59.39
2023-03-03T09:04:15.382Z,58.74
2023-03-03T09:09:16.970Z,58.26
2023-03-03T09:14:19.243Z,57.80
2023-03-03T09:19:31.079Z,57.46
2023-03-03T09:24:36.207Z,57.39
2023-03-03T09:29:39.461Z,57.00
2023-03-03T09:34:42.639Z,56.43
2023-03-03T09:39:45.962Z,55.72
2023-03-03T09:45:09.176Z,54.96
2023-03-03T09:50:34.777Z,53.50
2023-03-03T09:55:54.867Z,51.09
2023-03-03T10:01:02.998Z,49.82
2023-03-03T10:06:22.564Z,47.91
2023-03-03T10:11:43.082Z,45.25
2023-03-03T10:17:09.637Z,41.22
2023-03-03T10:22:20.465Z,37.36
2023-03-03T10:27:24.979Z,37.31
2023-03-03T10:32:41.956Z,36.21
2023-03-03T10:37:52.284Z,36.79
2023-03-03T10:43:33.535Z,36.43
2023-03-03T10:48:39.666Z,33.83
2023-03-03T10:54:06.712Z,29.01
2023-03-03T10:59:25.276Z,25.93
2023-03-03T11:05:20.799Z,23.73
2023-03-03T11:10:38.023Z,23.20
2023-03-03T11:15:58.521Z,21.84
2023-03-03T11:21:18.949Z,20.77
2023-03-03T11:26:41.462Z,19.76
2023-03-03T11:32:08.204Z,19.36
2023-03-03T11:37:37.174Z,19.69
2023-03-03T11:43:26.445Z,18.67
2023-03-03T11:48:48.761Z,18.42
2023-03-03T11:53:59.077Z,17.16
2023-03-03T11:59:32.811Z,16.94
2023-03-03T12:04:56.175Z,16.33
2023-03-03T12:10:19.748Z,15.93
2023-03-03T12:15:28.981Z,15.68
2023-03-03T12:21:03.691Z,15.32
2023-03-03T12:26:11.107Z,15.03
2023-03-03T12:31:39.014Z,14.73
2023-03-03T12:37:09.319Z,14.44
2023-03-03T12:42:22.011Z,13.85
2023-03-03T12:47:46.126Z,13.42
2023-03-03T12:53:00.358Z,14.10
2023-03-03T12:58:40.721Z,13.78
2023-03-03T13:04:08.481Z,13.88
2023-03-03T13:09:24.338Z,13.59
2023-03-03T13:14:43.237Z,14.51
2023-03-03T13:20:02.626Z,14.39
2023-03-03T13:25:34.404Z,13.94
2023-03-03T13:30:40.417Z,13.53
2023-03-03T13:35:50.020Z,13.13
2023-03-03T13:41:04.336Z,13.14
2023-03-03T13:46:12.710Z,12.88
2023-03-03T13:51:26.574Z,12.53
2023-03-03T13:56:40.019Z,12.50
2023-03-03T14:02:15.972Z,12.22
2023-03-03T14:07:32.911Z,12.23
2023-03-03T14:12:55.480Z,12.50
2023-03-03T14:18:27.566Z,11.97
2023-03-03T14:23:48.359Z,12.33
2023-03-03T14:28:52.401Z,13.51
2023-03-03T14:34:01.258Z,13.62
2023-03-03T14:39:02.734Z,13.59
2023-03-03T14:44:29.180Z,13.42
2023-03-03T14:49:36.775Z,13.49
2023-03-03T14:54:41.392Z,14.23
2023-03-03T15:00:00.988Z,16.50
2023-03-03T15:05:27.827Z,19.58
2023-03-03T15:10:34.068Z,22.63
2023-03-03T15:15:51.524Z,24.72
2023-03-03T15:21:02.317Z,26.12
2023-03-03T15:26:13.471Z,27.30
2023-03-03T15:31:18.098Z,28.37
2023-03-03T15:36:44.948Z,29.91
2023-03-03T15:42:11.740Z,30.95
2023-03-03T15:47:24.517Z,31.67
2023-03-03T15:52:42.112Z,32.17
2023-03-03T15:57:52.705Z,33.15
2023-03-03T16:03:15.306Z,33.70
2023-03-03T16:08:26.003Z,34.30
2023-03-03T16:13:59.684Z,34.80
2023-03-03T16:19:05.910Z,35.45
2023-03-03T16:24:40.408Z,35.99
2023-03-03T16:30:05.290Z,36.62
2023-03-03T16:35:12.452Z,37.28
2023-03-03T16:40:24.904Z,37.62
2023-03-03T16:45:39.213Z,38.25
2023-03-03T16:50:57.057Z,40.45
2023-03-03T16:56:22.177Z,39.22
2023-03-03T17:01:58.961Z,39.96
2023-03-03T17:07:15.367Z,40.46
2023-03-03T17:12:25.889Z,41.44
2023-03-03T17:18:02.702Z,41.37
2023-03-03T17:23:09.983Z,41.38
2023-03-03T17:28:48.389Z,41.59
2023-03-03T17:34:05.491Z,42.26
2023-03-03T17:39:19.158Z,42.22
2023-03-03T17:44:45.350Z,42.74
2023-03-03T17:49:56.269Z,43.14
2023-03-03T17:55:31.560Z,43.38
2023-03-03T18:00:32.859Z,43.74
2023-03-03T18:06:22.594Z,44.08
2023-03-03T18:11:56.993Z,43.86
2023-03-03T18:17:16.982Z,44.55
2023-03-03T18:22:30.838Z,44.57
2023-03-03T18:27:32.220Z,45.10
2023-03-03T18:32:55.613Z,45.08
2023-03-03T18:38:17.267Z,45.45
2023-03-03T18:43:43.796Z,45.75
2023-03-03T18:49:07.492Z,47.14
2023-03-03T18:54:11.982Z,46.42
2023-03-03T18:59:52.736Z,47.27
2023-03-03T19:05:04.642Z,47.48
2023-03-03T19:10:45.075Z,48.18
2023-03-03T19:15:52.461Z,48.54
2023-03-03T19:21:01.923Z,48.94
2023-03-03T19:26:25.410Z,48.91
2023-03-03T19:31:34.325Z,49.05
2023-03-03T19:36:54.591Z,49.63
2023-03-03T19:42:12.043Z,49.58
2023-03-03T19:47:13.337Z,49.55
2023-03-03T19:52:26.375Z,49.94
2023-03-03T19:57:54.039Z,49.86
2023-03-03T20:03:39.816Z,50.53
2023-03-03T20:08:43.086Z,50.70
2023-03-03T20:13:56.711Z,51.30
2023-03-03T20:19:07.228Z,51.70
2023-03-03T20:24:41.784Z,51.79
2023-03-03T20:30:46.914Z,52.44
2023-03-03T20:36:04.077Z,52.62
2023-03-03T20:41:25.709Z,52.71
2023-03-03T20:46:34.103Z,52.83
2023-03-03T20:51:44.956Z,53.21
2023-03-03T20:57:28.878Z,53.17
2023-03-03T21:02:47.311Z,53.46
2023-03-03T21:07:58.434Z,53.95
2023-03-03T21:13:26.165Z,54.36
2023-03-03T21:18:27.973Z,54.53
2023-03-03T21:23:29.392Z,54.61
2023-03-03T21:28:33.526Z,54.55
2023-03-03T21:33:55.400Z,54.60
2023-03-03T21:38:58.286Z,54.88
2023-03-03T21:43:59.771Z,55.02
2023-03-03T21:49:01.173Z,55.61
2023-03-03T21:54:02.602Z,55.74
2023-03-03T21:59:04.300Z,55.69
2023-03-03T22:04:05.868Z,56.72
2023-03-03T22:09:08.149Z,56.72
2023-03-03T22:14:09.722Z,56.76
2023-03-03T22:19:11.181Z,57.04
2023-03-03T22:24:13.047Z,57.86
2023-03-03T22:29:16.726Z,57.74
2023-03-03T22:34:18.436Z,58.51
2023-03-03T22:39:19.873Z,58.43
2023-03-03T22:44:21.333Z,58.11
2023-03-03T22:49:22.687Z,58.42
2023-03-03T22:54:24.903Z,58.57
2023-03-03T22:59:26.308Z,59.52
2023-03-03T23:04:27.853Z,59.23
2023-03-03T23:09:29.220Z,59.28
2023-03-03T23:14:30.704Z,59.92
2023-03-03T23:19:32.069Z,60.19
2023-03-03T23:24:33.589Z,59.98
2023-03-03T23:29:35.610Z,59.76
2023-03-03T23:34:37.021Z,60.96
2023-03-03T23:39:40.498Z,61.25
2023-03-03T23:44:41.933Z,61.08
2023-03-03T23:49:43.322Z,60.95
2023-03-03T23:54:45.296Z,60.94
2023-03-03T23:59:46.801Z,60.93
